createdAt,value
2022-11-07T07:12:21.485Z,100051.03
2022-11-07T07:15:15.980Z,99999.91
2022-11-07T07:17:45.271Z,100045.94
2022-11-07T07:20:30.638Z,100046.63
2022-11-07T07:23:15.675Z,100037.75
2022-11-07T07:25:44.136Z,100014.81
2022-11-07T07:28:26.927Z,100023.00
2022-11-07T07:31:10.122Z,100054.25
2022-11-07T07:33:42.528Z,100021.47
2022-11-07T07:36:15.274Z,100013.41
2022-11-07T07:38:48.039Z,100063.50
2022-11-07T07:41:23.963Z,100056.47
2022-11-07T07:43:56.910Z,100074.78
2022-11-07T07:46:34.192Z,100050.56
2022-11-07T07:49:02.580Z,100061.06
2022-11-07T07:51:31.919Z,100050.00
2022-11-07T07:54:23.790Z,100039.81
2022-11-07T07:56:54.531Z,100045.63
2022-11-07T07:59:22.771Z,100063.84
2022-11-07T08:01:56.845Z,100069.97
2022-11-07T08:04:42.732Z,100040.41
2022-11-07T08:07:16.455Z,100064.75
2022-11-07T08:09:44.862Z,100078.41
2022-11-07T08:12:13.304Z,100079.44
2022-11-07T08:14:41.454Z,100071.22
2022-11-07T08:17:16.715Z,100041.22
2022-11-07T08:19:44.860Z,100065.09
2022-11-07T08:22:13.521Z,100099.53
2022-11-07T08:24:43.622Z,100090.59
2022-11-07T08:27:13.385Z,100059.31
2022-11-07T08:29:45.448Z,100091.25
2022-11-07T08:32:20.300Z,100062.88
2022-11-07T08:34:49.261Z,100090.50
2022-11-07T08:37:19.179Z,100101.06
2022-11-07T08:39:47.190Z,100127.69
2022-11-07T08:42:16.049Z,100106.06
2022-11-07T08:44:45.102Z,100068.97
2022-11-07T08:47:13.077Z,100067.44
2022-11-07T08:49:46.982Z,100107.31
2022-11-07T08:52:23.114Z,100103.16
2022-11-07T08:54:51.406Z,100098.97
2022-11-07T08:57:19.699Z,100128.06
2022-11-07T08:59:47.767Z,100086.47
2022-11-07T09:05:06.034Z,100113.22
2022-11-07T09:07:34.521Z,100125.34
2022-11-07T09:10:02.403Z,100114.34
2022-11-07T09:12:30.711Z,100120.34
2022-11-07T09:14:58.806Z,100077.53
2022-11-07T09:17:27.265Z,100098.06
2022-11-07T09:19:55.614Z,100099.44
2022-11-07T09:22:45.288Z,100119.72
2022-11-07T09:25:14.136Z,100122.13
2022-11-07T09:27:43.208Z,100084.25
2022-11-07T09:30:30.164Z,100094.78
2022-11-07T09:38:24.198Z,100120.78
2022-11-07T09:41:04.500Z,100109.25
2022-11-07T09:43:45.699Z,100095.59
2022-11-07T09:46:27.560Z,100132.00
2022-11-07T09:49:01.136Z,100145.97
2022-11-07T09:51:40.645Z,100127.50
2022-11-07T09:54:27.375Z,100110.75
2022-11-07T09:57:13.963Z,100139.75
2022-11-07T10:00:02.543Z,100130.88
2022-11-07T10:02:33.964Z,100128.13
2022-11-07T10:05:05.466Z,100105.59
2022-11-07T10:07:47.477Z,100117.31
2022-11-07T10:10:23.648Z,100108.84
2022-11-07T10:13:07.539Z,100159.47
2022-11-07T10:15:48.201Z,100128.84
2022-11-07T10:18:26.948Z,100139.13
2022-11-07T10:21:35.797Z,100117.59
2022-11-07T10:24:10.311Z,100149.31
2022-11-07T10:26:44.121Z,100159.47
2022-11-07T10:29:15.953Z,100123.13
2022-11-07T10:31:52.007Z,100164.06
2022-11-07T10:34:28.993Z,100127.72
2022-11-07T10:36:57.336Z,100164.69
2022-11-07T10:39:25.354Z,100164.22
2022-11-07T10:42:02.288Z,100173.16
2022-11-07T10:44:30.886Z,100139.31
2022-11-07T10:46:59.066Z,100160.63
2022-11-07T10:49:29.969Z,100118.72
2022-11-07T10:52:11.226Z,100160.81
2022-11-07T10:54:40.766Z,100156.59
2022-11-07T10:57:14.938Z,100156.06
2022-11-07T10:59:47.787Z,100119.91
2022-11-07T11:02:22.574Z,100164.66
2022-11-07T11:04:54.389Z,100160.44
2022-11-07T11:07:28.597Z,100157.31
2022-11-07T11:10:01.190Z,100141.75
2022-11-07T11:12:34.747Z,100120.94
2022-11-07T11:15:14.540Z,100135.41
2022-11-07T11:17:42.779Z,100135.41
2022-11-07T11:20:31.578Z,100154.47
2022-11-07T11:23:01.003Z,100111.75
2022-11-07T11:25:28.877Z,100125.97
2022-11-07T11:28:07.041Z,100144.03
2022-11-07T11:30:37.602Z,100162.31
2022-11-07T11:33:14.780Z,100145.88
2022-11-07T11:35:48.956Z,100150.44
2022-11-07T11:38:22.903Z,100133.75
2022-11-07T11:41:01.513Z,100136.69
2022-11-07T11:43:43.196Z,100153.59
2022-11-07T11:46:21.589Z,100120.81
2022-11-07T11:48:51.822Z,100168.06
2022-11-07T11:51:28.992Z,100160.56
2022-11-07T11:54:00.390Z,100131.19
2022-11-07T11:56:40.503Z,100162.97
2022-11-07T11:59:28.426Z,100144.41
2022-11-07T12:02:06.051Z,100141.25
2022-11-07T12:04:51.045Z,100153.59
2022-11-07T12:07:42.424Z,100101.47
2022-11-07T12:10:17.599Z,100109.84
2022-11-07T12:12:59.022Z,100115.53
2022-11-07T12:15:44.195Z,100148.88
2022-11-07T12:18:23.156Z,100138.69
2022-11-07T12:21:02.232Z,100145.69
2022-11-07T12:24:01.468Z,100129.06
2022-11-07T12:26:40.366Z,100100.31
2022-11-07T12:29:37.326Z,100125.09
2022-11-07T12:32:18.213Z,100133.75
2022-11-07T12:35:09.424Z,100102.78
2022-11-07T12:38:03.710Z,100147.94
2022-11-07T12:40:44.614Z,100113.53
2022-11-07T12:43:29.775Z,100087.78
2022-11-07T12:46:09.621Z,100126.03
2022-11-07T12:49:17.179Z,100140.03
2022-11-07T12:51:55.315Z,100105.56
2022-11-07T12:54:39.929Z,100129.56
2022-11-07T12:57:20.768Z,100095.47
2022-11-07T12:59:58.380Z,100077.78
2022-11-07T13:02:39.838Z,100079.66
2022-11-07T13:05:23.412Z,100111.94
2022-11-07T13:08:00.793Z,100110.06
2022-11-07T13:10:38.962Z,100066.03
2022-11-07T13:13:16.788Z,100103.13
2022-11-07T13:16:13.732Z,100088.66
2022-11-07T13:18:36.915Z,100078.91
2022-11-07T13:21:07.522Z,100081.13
2022-11-07T13:23:37.592Z,100114.78
2022-11-07T13:26:26.283Z,100079.03
2022-11-07T13:28:59.879Z,100069.94
2022-11-07T13:31:54.475Z,100081.81
2022-11-07T13:34:28.226Z,100113.00
2022-11-07T13:37:02.795Z,100096.59
2022-11-07T13:39:34.425Z,100097.38
2022-11-07T13:42:02.564Z,100113.19
2022-11-07T13:44:37.873Z,100075.06
2022-11-07T13:47:13.424Z,100093.16
2022-11-07T13:49:45.260Z,100092.09
2022-11-07T13:52:23.860Z,100081.25
2022-11-07T13:54:59.601Z,100090.44
2022-11-07T13:57:32.502Z,100085.09
2022-11-07T14:00:06.212Z,100081.81
2022-11-07T14:02:38.034Z,100093.41
2022-11-07T14:05:16.326Z,100068.41
2022-11-07T14:07:49.780Z,100085.09
2022-11-07T14:10:25.472Z,100060.13
2022-11-07T14:12:57.142Z,100060.91
2022-11-07T14:15:30.610Z,100065.69
2022-11-07T14:17:58.836Z,100092.03
2022-11-07T14:20:26.995Z,100096.66
2022-11-07T14:23:09.859Z,100057.97
2022-11-07T14:25:41.946Z,100098.75
2022-11-07T14:28:17.821Z,100084.28
2022-11-07T14:30:56.310Z,100084.47
2022-11-07T14:33:25.005Z,100089.81
2022-11-07T14:35:53.827Z,100067.56
2022-11-07T14:38:25.866Z,100072.66
2022-11-07T14:41:03.625Z,100109.78
2022-11-07T14:43:34.824Z,100078.56
2022-11-07T14:46:13.122Z,100095.78
2022-11-07T14:48:46.062Z,100073.75
2022-11-07T14:51:20.186Z,100070.78
2022-11-07T14:53:56.853Z,100098.53
2022-11-07T14:56:33.646Z,100121.84
2022-11-07T14:59:05.293Z,100097.69
2022-11-07T15:01:34.884Z,100102.47
2022-11-07T15:04:06.874Z,100107.84
2022-11-07T15:06:43.890Z,100113.81
2022-11-07T15:09:12.470Z,100095.28
2022-11-07T15:11:43.982Z,100094.72
2022-11-07T15:14:23.948Z,100118.91
2022-11-07T15:16:52.743Z,100091.50
2022-11-07T15:19:24.691Z,100086.59
2022-11-07T15:22:00.282Z,100077.47
2022-11-07T15:24:40.694Z,100103.84
2022-11-07T15:27:22.101Z,100092.31
2022-11-07T15:29:59.687Z,100093.66
2022-11-07T15:32:33.694Z,100103.88
2022-11-07T15:35:43.734Z,100102.28
2022-11-07T15:38:03.424Z,100090.69
2022-11-07T15:40:31.701Z,100092.31
2022-11-07T15:43:01.037Z,100101.44
